APX718 EGFF-EGJB
Flight info
| Callsign | APX718 |
|---|---|
| Flight time | 0h 28m |
| Altitude | 11000 |
| Route | EXMOR N40 KLAKI L149 BIGNO |
| Aircraft | C25B/M-SDE2E3FGHRWXY/LB1 |
Departure
| Time | 2026-05-06 15:01 |
|---|---|
| Airport | Cardiff International Airport (EGFF) |
Arrival
| Time | 2026-05-06 15:29 |
|---|---|
| Airport | Guernsey Airport (EGJB) |
| Time | Latitude | Longitude | Altitude | Speed | Heading |
|---|---|---|---|---|---|
| 2026-05-06 14:48 | 51.39993 | -3.34273 | 218 ft | 0 kts | 297° |
| 2026-05-06 14:57 | 51.39994 | -3.34281 | 218 ft | 2 kts | 263° |
| 2026-05-06 14:58 | 51.39948 | -3.34269 | 218 ft | 14 kts | 148° |
| 2026-05-06 14:58 | 51.39857 | -3.34299 | 220 ft | 15 kts | 241° |
| 2026-05-06 14:58 | 51.39885 | -3.34453 | 220 ft | 15 kts | 296° |
| 2026-05-06 14:58 | 51.39931 | -3.34611 | 218 ft | 12 kts | 275° |
| 2026-05-06 14:59 | 51.39920 | -3.34656 | 217 ft | 0 kts | 217° |
| 2026-05-06 14:59 | 51.39919 | -3.34658 | 217 ft | 3 kts | 214° |
| 2026-05-06 15:00 | 51.39861 | -3.34705 | 216 ft | 14 kts | 207° |
| 2026-05-06 15:00 | 51.39778 | -3.34701 | 217 ft | 14 kts | 119° |
| 2026-05-06 15:00 | 51.39617 | -3.34192 | 214 ft | 107 kts | 117° |
| 2026-05-06 15:00 | 51.39160 | -3.32737 | 805 ft | 176 kts | 116° |
| 2026-05-06 15:01 | 51.38593 | -3.30783 | 2157 ft | 209 kts | 111° |
| 2026-05-06 15:01 | 51.37940 | -3.28563 | 3763 ft | 231 kts | 116° |
| 2026-05-06 15:01 | 51.37068 | -3.26300 | 5425 ft | 248 kts | 133° |
| 2026-05-06 15:01 | 51.35635 | -3.24723 | 7112 ft | 248 kts | 153° |
| 2026-05-06 15:02 | 51.34010 | -3.24047 | 7999 ft | 257 kts | 181° |
| 2026-05-06 15:02 | 51.32232 | -3.24482 | 8978 ft | 261 kts | 199° |
| 2026-05-06 15:02 | 51.30639 | -3.26065 | 9460 ft | 283 kts | 221° |
| 2026-05-06 15:02 | 51.29239 | -3.28322 | 10227 ft | 287 kts | 235° |
| 2026-05-06 15:03 | 51.27948 | -3.30784 | 10968 ft | 297 kts | 227° |
| 2026-05-06 15:03 | 51.26363 | -3.33132 | 11027 ft | 326 kts | 220° |
| 2026-05-06 15:03 | 51.24236 | -3.34683 | 11025 ft | 344 kts | 195° |
| 2026-05-06 15:03 | 51.21882 | -3.35346 | 11026 ft | 343 kts | 188° |
| 2026-05-06 15:04 | 51.19503 | -3.35295 | 11017 ft | 343 kts | 171° |
| 2026-05-06 15:04 | 51.17217 | -3.34400 | 11011 ft | 343 kts | 160° |
| 2026-05-06 15:04 | 51.15226 | -3.32787 | 11010 ft | 343 kts | 148° |
| 2026-05-06 15:04 | 51.13277 | -3.30582 | 11007 ft | 344 kts | 143° |
| 2026-05-06 15:05 | 51.11350 | -3.28335 | 11007 ft | 344 kts | 143° |
| 2026-05-06 15:05 | 51.09368 | -3.26212 | 11000 ft | 343 kts | 153° |
| 2026-05-06 15:05 | 51.07134 | -3.24891 | 10994 ft | 343 kts | 164° |
| 2026-05-06 15:05 | 51.04783 | -3.24346 | 10983 ft | 342 kts | 179° |
| 2026-05-06 15:06 | 51.02402 | -3.24313 | 10992 ft | 342 kts | 179° |
| 2026-05-06 15:06 | 51.00018 | -3.24223 | 10992 ft | 343 kts | 180° |
| 2026-05-06 15:06 | 50.97634 | -3.24204 | 11002 ft | 343 kts | 180° |
| 2026-05-06 15:06 | 50.95245 | -3.24175 | 11004 ft | 343 kts | 180° |
| 2026-05-06 15:07 | 50.92856 | -3.24125 | 11005 ft | 343 kts | 180° |
| 2026-05-06 15:07 | 50.90469 | -3.24079 | 11010 ft | 343 kts | 180° |
| 2026-05-06 15:07 | 50.88080 | -3.24034 | 11011 ft | 343 kts | 180° |
| 2026-05-06 15:07 | 50.85691 | -3.23997 | 11014 ft | 344 kts | 180° |
| 2026-05-06 15:08 | 50.83293 | -3.23950 | 11018 ft | 344 kts | 180° |
| 2026-05-06 15:08 | 50.80935 | -3.23913 | 11024 ft | 343 kts | 180° |
| 2026-05-06 15:08 | 50.78549 | -3.23867 | 11023 ft | 343 kts | 180° |
| 2026-05-06 15:08 | 50.76154 | -3.23801 | 11023 ft | 343 kts | 177° |
| 2026-05-06 15:09 | 50.73808 | -3.23141 | 11012 ft | 342 kts | 168° |
| 2026-05-06 15:09 | 50.71459 | -3.22498 | 11012 ft | 342 kts | 172° |
| 2026-05-06 15:09 | 50.69101 | -3.21938 | 11011 ft | 343 kts | 171° |
| 2026-05-06 15:09 | 50.66757 | -3.21272 | 11010 ft | 342 kts | 169° |
| 2026-05-06 15:10 | 50.64420 | -3.20610 | 11009 ft | 342 kts | 170° |
| 2026-05-06 15:10 | 50.62066 | -3.19961 | 11005 ft | 342 kts | 170° |
| 2026-05-06 15:10 | 50.59719 | -3.19335 | 11006 ft | 342 kts | 170° |
| 2026-05-06 15:10 | 50.57375 | -3.18686 | 11001 ft | 342 kts | 170° |
| 2026-05-06 15:11 | 50.55034 | -3.18048 | 10999 ft | 342 kts | 170° |
| 2026-05-06 15:11 | 50.52720 | -3.17412 | 11000 ft | 342 kts | 170° |
| 2026-05-06 15:11 | 50.50375 | -3.16775 | 10996 ft | 342 kts | 170° |
| 2026-05-06 15:11 | 50.48032 | -3.16137 | 10995 ft | 342 kts | 170° |
| 2026-05-06 15:12 | 50.45691 | -3.15495 | 10996 ft | 342 kts | 170° |
| 2026-05-06 15:12 | 50.43349 | -3.14864 | 10992 ft | 342 kts | 170° |
| 2026-05-06 15:12 | 50.41769 | -3.14427 | 10991 ft | 341 kts | 170° |
| 2026-05-06 15:12 | 50.39455 | -3.13806 | 10993 ft | 341 kts | 171° |
| 2026-05-06 15:13 | 50.37144 | -3.13001 | 10985 ft | 341 kts | 161° |
| 2026-05-06 15:13 | 50.35011 | -3.11395 | 10991 ft | 340 kts | 152° |
| 2026-05-06 15:13 | 50.32907 | -3.09687 | 10988 ft | 340 kts | 153° |
| 2026-05-06 15:13 | 50.30815 | -3.07932 | 10988 ft | 340 kts | 151° |
| 2026-05-06 15:14 | 50.28728 | -3.06173 | 10993 ft | 341 kts | 152° |
| 2026-05-06 15:14 | 50.26626 | -3.04440 | 10995 ft | 341 kts | 152° |
| 2026-05-06 15:14 | 50.24530 | -3.02704 | 10997 ft | 341 kts | 152° |
| 2026-05-06 15:14 | 50.22429 | -3.00971 | 10995 ft | 342 kts | 152° |
| 2026-05-06 15:15 | 50.20332 | -2.99224 | 10996 ft | 342 kts | 152° |
| 2026-05-06 15:15 | 50.18226 | -2.97495 | 10998 ft | 342 kts | 152° |
| 2026-05-06 15:15 | 50.16125 | -2.95751 | 10999 ft | 342 kts | 152° |
| 2026-05-06 15:15 | 50.14018 | -2.94023 | 10995 ft | 342 kts | 152° |
| 2026-05-06 15:16 | 50.11919 | -2.92284 | 10996 ft | 342 kts | 152° |
| 2026-05-06 15:16 | 50.09839 | -2.90579 | 10998 ft | 342 kts | 152° |
| 2026-05-06 15:16 | 50.07743 | -2.88849 | 10997 ft | 341 kts | 152° |
| 2026-05-06 15:16 | 50.05637 | -2.87127 | 10996 ft | 342 kts | 153° |
| 2026-05-06 15:17 | 50.03546 | -2.85404 | 10996 ft | 342 kts | 152° |
| 2026-05-06 15:17 | 50.01436 | -2.83680 | 10863 ft | 344 kts | 153° |
| 2026-05-06 15:17 | 49.99295 | -2.82202 | 10365 ft | 331 kts | 165° |
| 2026-05-06 15:17 | 49.97081 | -2.81417 | 9868 ft | 322 kts | 167° |
| 2026-05-06 15:18 | 49.94950 | -2.80492 | 9331 ft | 311 kts | 165° |
| 2026-05-06 15:18 | 49.92913 | -2.79664 | 8786 ft | 295 kts | 167° |
| 2026-05-06 15:18 | 49.90964 | -2.78912 | 8261 ft | 282 kts | 166° |
| 2026-05-06 15:18 | 49.89092 | -2.78185 | 7724 ft | 272 kts | 168° |
| 2026-05-06 15:19 | 49.87242 | -2.77876 | 7246 ft | 265 kts | 179° |
| 2026-05-06 15:19 | 49.85388 | -2.77818 | 6840 ft | 268 kts | 179° |
| 2026-05-06 15:19 | 49.83521 | -2.77780 | 6446 ft | 268 kts | 180° |
| 2026-05-06 15:20 | 49.82539 | -2.77769 | 6229 ft | 269 kts | 180° |
| 2026-05-06 15:20 | 49.80868 | -2.77742 | 5856 ft | 269 kts | 180° |
| 2026-05-06 15:20 | 49.79000 | -2.77732 | 5438 ft | 268 kts | 180° |
| 2026-05-06 15:20 | 49.77130 | -2.77721 | 5033 ft | 268 kts | 180° |
| 2026-05-06 15:21 | 49.75263 | -2.77736 | 4621 ft | 268 kts | 180° |
| 2026-05-06 15:21 | 49.73392 | -2.77749 | 4205 ft | 268 kts | 180° |
| 2026-05-06 15:21 | 49.71549 | -2.77781 | 3946 ft | 262 kts | 180° |
| 2026-05-06 15:21 | 49.69736 | -2.77805 | 3689 ft | 258 kts | 180° |
| 2026-05-06 15:22 | 49.67954 | -2.77840 | 3429 ft | 255 kts | 180° |
| 2026-05-06 15:22 | 49.66189 | -2.77873 | 3171 ft | 252 kts | 180° |
| 2026-05-06 15:22 | 49.64446 | -2.77914 | 2913 ft | 250 kts | 180° |
| 2026-05-06 15:22 | 49.62709 | -2.77957 | 2653 ft | 249 kts | 181° |
| 2026-05-06 15:23 | 49.61016 | -2.78493 | 2386 ft | 251 kts | 199° |
| 2026-05-06 15:23 | 49.59378 | -2.79462 | 2129 ft | 252 kts | 199° |
| 2026-05-06 15:23 | 49.57752 | -2.80420 | 2004 ft | 247 kts | 200° |
| 2026-05-06 15:23 | 49.56197 | -2.81375 | 2004 ft | 242 kts | 200° |
| 2026-05-06 15:24 | 49.54619 | -2.82338 | 2002 ft | 240 kts | 200° |
| 2026-05-06 15:24 | 49.53071 | -2.83283 | 2002 ft | 240 kts | 200° |
| 2026-05-06 15:24 | 49.51538 | -2.84215 | 1994 ft | 240 kts | 200° |
| 2026-05-06 15:24 | 49.49935 | -2.84774 | 1990 ft | 236 kts | 181° |
| 2026-05-06 15:25 | 49.48296 | -2.84731 | 1991 ft | 235 kts | 178° |
| 2026-05-06 15:25 | 49.46666 | -2.84687 | 1986 ft | 233 kts | 177° |
| 2026-05-06 15:25 | 49.45101 | -2.84231 | 1987 ft | 229 kts | 159° |
| 2026-05-06 15:25 | 49.43729 | -2.83040 | 1989 ft | 226 kts | 144° |
| 2026-05-06 15:26 | 49.42612 | -2.81399 | 1985 ft | 222 kts | 120° |
| 2026-05-06 15:26 | 49.42342 | -2.79112 | 1991 ft | 220 kts | 82° |
| 2026-05-06 15:26 | 49.42829 | -2.76908 | 1990 ft | 215 kts | 73° |
| 2026-05-06 15:26 | 49.43055 | -2.74719 | 1991 ft | 197 kts | 87° |
| 2026-05-06 15:27 | 49.43153 | -2.72746 | 1849 ft | 177 kts | 86° |
| 2026-05-06 15:27 | 49.43199 | -2.70903 | 1604 ft | 168 kts | 89° |
| 2026-05-06 15:27 | 49.43243 | -2.69189 | 1389 ft | 159 kts | 86° |
| 2026-05-06 15:27 | 49.43295 | -2.67599 | 1189 ft | 140 kts | 89° |
| 2026-05-06 15:28 | 49.43325 | -2.66156 | 982 ft | 133 kts | 86° |
| 2026-05-06 15:28 | 49.43375 | -2.64751 | 793 ft | 132 kts | 88° |
| 2026-05-06 15:28 | 49.43400 | -2.63349 | 670 ft | 131 kts | 85° |
| 2026-05-06 15:28 | 49.43453 | -2.61953 | 465 ft | 132 kts | 88° |
| 2026-05-06 15:29 | 49.43486 | -2.60579 | 343 ft | 116 kts | 86° |
| 2026-05-06 15:29 | 49.43511 | -2.59648 | 338 ft | 58 kts | 87° |
| 2026-05-06 15:29 | 49.43523 | -2.59266 | 343 ft | 17 kts | 88° |
| 2026-05-06 15:29 | 49.43466 | -2.59202 | 336 ft | 14 kts | 176° |
| 2026-05-06 15:30 | 49.43395 | -2.59191 | 332 ft | 7 kts | 161° |
| 2026-05-06 15:30 | 49.43377 | -2.59120 | 335 ft | 13 kts | 79° |
| 2026-05-06 15:30 | 49.43382 | -2.58988 | 333 ft | 8 kts | 137° |
| 2026-05-06 15:30 | 49.43347 | -2.58982 | 335 ft | 0 kts | 179° |